Terminal Aerodrome Forecast
Issued by NWS

Home | Current Version | Previous Version | Text Only | Print | Product List | Glossary On
Versions: 1 2 3 4 5 6 7 8 9 10 11 12 13 14 15 16 17 18 19 20 21 22 23 24
000
FTPA31 PHFO 302000 AAA
TAFOGG
TAF AMD
PHOG 302023Z 3020/3118 04012KT P6SM -SHRA BKN035
     FM302200 04018G26KT P6SM -SHRA SCT035 BKN060
     FM310400 04012KT P6SM VCSH SCT030 SCT050
     FM311000 04006KT P6SM FEW030 SCT060
      AMD LTD TO VIS AND WIND 3109/3116=

USA.gov is the U.S. government's official web portal to all federal, state and local government web resources and services.